Time;durP1;ratioP1;P1;durP2;ratioP2;P2;SDS_P1;SDS_P2;PMS_P1;PMS_P2;Temp;Humidity;BMP_temperature;BMP_pressure;BME280_temperature;BME280_humidity;BME280_pressure;Samples;Min_cycle;Max_cycle;Signal;HPM_P1;HPM_P2
2022/03/24 00:00:06;;;;;;;1.80;1.30;;;6.70;73.20;;;;;;5075453;28;20471;-45
2022/03/24 00:02:33;;;;;;;1.57;1.20;;;6.70;73.30;;;;;;5075644;28;20496;-45
2022/03/24 00:05:02;;;;;;;3.03;1.20;;;6.70;73.20;;;;;;5075659;28;20514;-45
2022/03/24 00:07:29;;;;;;;1.30;1.10;;;6.70;72.90;;;;;;5076105;28;20502;-49
2022/03/24 00:09:56;;;;;;;1.73;1.17;;;6.60;72.40;;;;;;5075256;28;20447;-47
2022/03/24 00:12:23;;;;;;;3.77;1.10;;;6.40;73.10;;;;;;5075882;28;20526;-49
2022/03/24 00:14:50;;;;;;;1.60;1.20;;;6.30;73.70;;;;;;5075525;28;20515;-45
2022/03/24 00:17:17;;;;;;;2.00;1.00;;;6.30;73.90;;;;;;5076590;28;20796;-48
2022/03/24 00:19:44;;;;;;;1.60;1.20;;;6.50;74.60;;;;;;5076104;28;20493;-51
2022/03/24 00:22:12;;;;;;;1.60;1.40;;;6.50;74.40;;;;;;5076387;28;20899;-45
2022/03/24 00:24:39;;;;;;;5.07;2.33;;;6.60;74.30;;;;;;5075846;28;20495;-46
2022/03/24 00:27:07;;;;;;;4.20;2.40;;;6.70;73.20;;;;;;5076024;28;20529;-44
2022/03/24 00:29:33;;;;;;;1.70;1.30;;;6.70;72.60;;;;;;5075150;28;20508;-45
2022/03/24 00:32:00;;;;;;;1.77;1.20;;;6.70;73.10;;;;;;5075805;28;20496;-47
2022/03/24 00:34:27;;;;;;;1.73;1.00;;;6.80;72.10;;;;;;5075631;28;20989;-45
2022/03/24 00:36:54;;;;;;;1.40;1.00;;;6.90;73.10;;;;;;5075810;28;20482;-50
2022/03/24 00:39:22;;;;;;;1.33;0.93;;;6.70;72.40;;;;;;5074870;28;20486;-45
2022/03/24 00:41:49;;;;;;;1.20;1.07;;;6.40;72.70;;;;;;5076184;28;20518;-45
2022/03/24 00:44:19;;;;;;;1.20;1.00;;;6.30;74.00;;;;;;5076839;28;20478;-45
2022/03/24 00:46:46;;;;;;;1.40;1.30;;;6.00;75.10;;;;;;5076872;28;20444;-45
2022/03/24 00:49:13;;;;;;;1.60;1.30;;;5.80;75.70;;;;;;5077173;28;20495;-48
2022/03/24 00:51:40;;;;;;;2.00;1.10;;;5.70;75.40;;;;;;5076963;28;20547;-45
2022/03/24 00:54:07;;;;;;;3.00;1.00;;;5.80;75.80;;;;;;5077024;28;20476;-44
2022/03/24 00:56:35;;;;;;;1.23;1.10;;;5.80;75.70;;;;;;5076326;28;20559;-44
2022/03/24 00:59:03;;;;;;;1.30;1.20;;;6.00;75.60;;;;;;5076261;28;20472;-44
2022/03/24 01:01:30;;;;;;;2.53;1.50;;;5.90;75.20;;;;;;5076299;28;20522;-45
2022/03/24 01:03:56;;;;;;;1.20;1.10;;;5.90;75.10;;;;;;5076011;28;20444;-46
2022/03/24 01:06:26;;;;;;;1.30;1.20;;;5.90;75.60;;;;;;5076695;28;20523;-43
2022/03/24 01:08:53;;;;;;;1.47;1.10;;;5.90;75.80;;;;;;5076495;28;20495;-44
2022/03/24 01:11:20;;;;;;;2.10;1.40;;;6.00;75.50;;;;;;5075878;28;20476;-46
2022/03/24 01:13:49;;;;;;;1.57;1.10;;;6.00;76.00;;;;;;5077074;28;20475;-41
2022/03/24 01:16:16;;;;;;;1.20;1.10;;;6.10;76.10;;;;;;5075741;28;20455;-43
2022/03/24 01:18:43;;;;;;;1.37;1.10;;;6.20;74.90;;;;;;5075911;28;20512;-43
2022/03/24 01:21:11;;;;;;;1.17;1.07;;;6.20;75.20;;;;;;5076102;28;20698;-43
2022/03/24 01:23:38;;;;;;;1.70;0.80;;;6.10;75.00;;;;;;5076311;28;20449;-43
2022/03/24 01:26:05;;;;;;;1.90;1.10;;;5.80;75.10;;;;;;5075620;28;20985;-41
2022/03/24 01:28:34;;;;;;;1.37;0.90;;;5.80;75.30;;;;;;5076234;28;20447;-41
2022/03/24 01:31:03;;;;;;;1.10;1.00;;;5.80;74.90;;;;;;5076100;28;20452;-41
2022/03/24 01:33:29;;;;;;;1.30;1.20;;;5.80;74.70;;;;;;5076083;28;20501;-41
2022/03/24 01:35:56;;;;;;;1.27;1.17;;;5.80;75.10;;;;;;5076232;28;20511;-41
2022/03/24 01:38:23;;;;;;;1.27;1.10;;;5.70;75.30;;;;;;5075520;28;20464;-41
2022/03/24 01:40:51;;;;;;;1.23;1.13;;;5.80;76.00;;;;;;5075619;28;20891;-41
2022/03/24 01:43:19;;;;;;;3.00;1.27;;;5.90;75.90;;;;;;5075994;28;20495;-41
2022/03/24 01:45:46;;;;;;;1.83;1.20;;;6.00;75.00;;;;;;5075404;28;20445;-41
2022/03/24 01:48:15;;;;;;;1.20;1.00;;;6.00;74.50;;;;;;5075400;28;20445;-43
2022/03/24 01:50:42;;;;;;;1.57;1.20;;;5.90;74.20;;;;;;5075629;28;20444;-42
2022/03/24 01:53:09;;;;;;;1.30;1.10;;;5.80;74.30;;;;;;5075969;28;20593;-41
2022/03/24 01:55:38;;;;;;;1.23;1.07;;;5.90;74.90;;;;;;5075871;28;20879;-41
2022/03/24 01:58:06;;;;;;;1.30;1.20;;;5.80;74.50;;;;;;5075242;28;20897;-40
2022/03/24 02:00:34;;;;;;;2.03;1.07;;;5.80;74.60;;;;;;5075901;28;20569;-41
2022/03/24 02:03:04;;;;;;;1.47;1.37;;;5.70;75.10;;;;;;5076107;28;20492;-41
2022/03/24 02:05:33;;;;;;;1.10;1.00;;;5.70;75.90;;;;;;5075363;28;20494;-41
2022/03/24 02:08:03;;;;;;;1.30;1.20;;;5.50;76.00;;;;;;5075602;28;20468;-41
2022/03/24 02:10:31;;;;;;;0.90;0.90;;;5.40;76.10;;;;;;5075347;28;20449;-41
2022/03/24 02:12:59;;;;;;;1.50;1.30;;;5.50;76.10;;;;;;5075745;28;20866;-41
2022/03/24 02:15:26;;;;;;;1.00;0.80;;;5.50;76.80;;;;;;5075820;28;20997;-41
2022/03/24 02:17:54;;;;;;;1.00;1.00;;;5.50;76.00;;;;;;5075999;28;20479;-43
2022/03/24 02:20:21;;;;;;;1.10;1.00;;;5.40;75.70;;;;;;5074697;28;20487;-41
2022/03/24 02:22:51;;;;;;;1.03;0.93;;;5.40;76.00;;;;;;5075497;28;20904;-52
2022/03/24 02:25:18;;;;;;;1.00;0.90;;;5.40;76.60;;;;;;5075671;28;20491;-41
2022/03/24 02:27:47;;;;;;;1.40;1.30;;;5.50;76.60;;;;;;5075736;28;20517;-42
2022/03/24 02:30:14;;;;;;;1.00;1.00;;;5.70;76.10;;;;;;5075358;28;20492;-41
2022/03/24 02:32:41;;;;;;;1.43;1.03;;;5.80;75.40;;;;;;5075298;28;20502;-41
2022/03/24 02:35:09;;;;;;;1.30;1.20;;;5.60;74.80;;;;;;5075426;28;20480;-41
2022/03/24 02:37:36;;;;;;;0.90;0.70;;;5.60;75.00;;;;;;5074309;28;20468;-41
2022/03/24 02:40:06;;;;;;;1.57;1.47;;;5.80;76.00;;;;;;5074963;28;20472;-42
2022/03/24 02:42:33;;;;;;;2.00;1.00;;;5.80;75.60;;;;;;5075476;28;20892;-42
2022/03/24 02:45:02;;;;;;;4.13;1.13;;;5.70;75.80;;;;;;5075049;28;20537;-41
2022/03/24 02:47:29;;;;;;;0.87;0.87;;;5.80;75.50;;;;;;5075285;28;20475;-41
2022/03/24 02:49:58;;;;;;;1.23;1.13;;;5.60;75.60;;;;;;5074424;28;20871;-41
2022/03/24 02:52:25;;;;;;;1.10;1.00;;;5.40;76.30;;;;;;5075448;28;20727;-41
2022/03/24 02:54:52;;;;;;;0.93;0.83;;;5.40;77.20;;;;;;5075058;28;20475;-41
2022/03/24 02:57:20;;;;;;;1.50;0.90;;;5.50;76.60;;;;;;5075420;28;20479;-42
2022/03/24 02:59:48;;;;;;;1.07;0.93;;;5.60;75.90;;;;;;5075026;28;20448;-40
2022/03/24 03:02:17;;;;;;;1.13;1.03;;;5.60;75.50;;;;;;5074629;28;20491;-41
2022/03/24 03:04:45;;;;;;;1.27;1.17;;;5.60;75.30;;;;;;5074540;28;20513;-41
2022/03/24 03:07:13;;;;;;;1.13;1.03;;;5.60;75.30;;;;;;5075474;28;20467;-47
2022/03/24 03:09:41;;;;;;;1.47;1.17;;;5.70;75.30;;;;;;5074737;28;20475;-43
2022/03/24 03:12:10;;;;;;;2.13;1.20;;;5.60;75.50;;;;;;5074852;28;20500;-41
2022/03/24 03:14:39;;;;;;;1.30;1.20;;;5.70;75.20;;;;;;5074742;28;20820;-41
2022/03/24 03:17:07;;;;;;;2.83;1.00;;;5.60;76.20;;;;;;5074695;28;21009;-43
2022/03/24 03:19:34;;;;;;;1.40;1.07;;;5.70;76.30;;;;;;5074885;28;20482;-40
2022/03/24 03:22:03;;;;;;;0.93;0.90;;;5.70;74.90;;;;;;5074614;28;20496;-40
2022/03/24 03:24:30;;;;;;;1.27;1.17;;;5.70;75.00;;;;;;5074500;28;20448;-42
2022/03/24 03:26:57;;;;;;;1.70;1.33;;;5.50;74.60;;;;;;5075028;28;20471;-43
2022/03/24 03:29:24;;;;;;;1.20;1.10;;;5.40;75.20;;;;;;5074443;28;20849;-41
2022/03/24 03:31:53;;;;;;;1.77;1.10;;;5.30;75.70;;;;;;5074600;28;20464;-41
2022/03/24 03:34:24;;;;;;;1.00;0.90;;;5.30;76.30;;;;;;5075125;28;20444;-41
2022/03/24 03:36:51;;;;;;;1.37;1.27;;;5.30;77.10;;;;;;5075146;28;20509;-41
2022/03/24 03:39:18;;;;;;;1.60;1.40;;;5.30;76.70;;;;;;5074390;28;20476;-41
2022/03/24 03:41:45;;;;;;;1.30;1.20;;;5.30;76.70;;;;;;5074583;28;20490;-42
2022/03/24 03:44:12;;;;;;;1.10;1.00;;;5.40;76.80;;;;;;5074823;28;20479;-41
2022/03/24 03:46:39;;;;;;;1.73;1.30;;;5.30;76.60;;;;;;5074853;28;20469;-41
2022/03/24 03:49:08;;;;;;;1.23;1.13;;;5.30;75.70;;;;;;5074617;28;20475;-41
2022/03/24 03:51:37;;;;;;;1.47;1.37;;;5.00;75.40;;;;;;5078080;28;20439;-40
2022/03/24 03:54:05;;;;;;;0.97;0.87;;;5.00;76.20;;;;;;5078004;28;20444;-43
2022/03/24 03:56:32;;;;;;;1.57;1.10;;;4.90;76.80;;;;;;5078299;28;20512;-41
2022/03/24 03:58:59;;;;;;;6.20;1.10;;;4.90;77.40;;;;;;5077749;28;20483;-40
2022/03/24 04:01:26;;;;;;;1.23;1.13;;;4.80;77.30;;;;;;5078007;28;20503;-42
2022/03/24 04:03:53;;;;;;;1.00;0.83;;;4.70;77.70;;;;;;5078471;28;20444;-42
2022/03/24 04:06:22;;;;;;;1.23;1.13;;;4.80;77.90;;;;;;5077882;28;20447;-41
2022/03/24 04:08:48;;;;;;;2.17;1.20;;;4.90;77.80;;;;;;5078241;28;20476;-41
2022/03/24 04:11:15;;;;;;;1.70;1.33;;;4.90;77.90;;;;;;5077440;28;20495;-43
2022/03/24 04:13:45;;;;;;;1.33;1.23;;;5.00;77.00;;;;;;5078426;28;20506;-42
2022/03/24 04:16:13;;;;;;;1.43;1.10;;;5.20;76.40;;;;;;5076897;28;21031;-41
2022/03/24 04:18:41;;;;;;;0.97;0.87;;;5.40;75.80;;;;;;5077921;28;20980;-41
2022/03/24 04:21:08;;;;;;;1.33;1.20;;;5.40;75.40;;;;;;5077542;28;20485;-41
2022/03/24 04:23:38;;;;;;;0.87;0.80;;;5.40;75.60;;;;;;5077711;28;20480;-41
2022/03/24 04:26:05;;;;;;;2.20;1.63;;;5.30;75.90;;;;;;5078061;28;20464;-42
2022/03/24 04:28:32;;;;;;;1.00;0.87;;;5.30;75.60;;;;;;5077540;28;21007;-47
2022/03/24 04:30:59;;;;;;;1.47;1.33;;;5.10;75.50;;;;;;5077304;28;20451;-41
2022/03/24 04:33:26;;;;;;;1.30;1.20;;;5.10;75.70;;;;;;5077438;28;20492;-50
2022/03/24 04:35:53;;;;;;;1.10;1.00;;;5.00;76.10;;;;;;5077839;28;20500;-41
2022/03/24 04:38:20;;;;;;;1.57;1.40;;;5.10;76.50;;;;;;5077280;28;20479;-42
2022/03/24 04:40:49;;;;;;;1.13;1.00;;;5.20;76.60;;;;;;5076839;28;20479;-43
2022/03/24 04:43:16;;;;;;;1.73;1.30;;;5.10;76.70;;;;;;5077678;28;20783;-41
2022/03/24 04:45:43;;;;;;;1.70;1.60;;;4.90;76.70;;;;;;5076967;28;20487;-41
2022/03/24 04:48:10;;;;;;;1.83;1.67;;;4.50;77.50;;;;;;5078135;28;20451;-41
2022/03/24 04:50:37;;;;;;;1.63;1.40;;;4.50;78.40;;;;;;5076936;28;20440;-41
2022/03/24 04:53:05;;;;;;;5.60;1.40;;;4.60;78.80;;;;;;5077850;28;20691;-41
2022/03/24 04:55:31;;;;;;;1.77;1.57;;;4.70;78.40;;;;;;5077538;28;20482;-43
2022/03/24 04:58:00;;;;;;;1.43;1.33;;;4.70;77.20;;;;;;5077241;28;20507;-41
2022/03/24 05:00:27;;;;;;;1.63;1.50;;;4.70;77.50;;;;;;5076995;28;20945;-41
2022/03/24 05:02:54;;;;;;;1.50;1.40;;;4.90;77.60;;;;;;5076225;28;20476;-41
2022/03/24 05:05:21;;;;;;;1.40;1.30;;;4.70;77.10;;;;;;5076945;28;21117;-44
2022/03/24 05:07:48;;;;;;;2.50;1.20;;;4.70;78.10;;;;;;5077283;28;20999;-41
2022/03/24 05:10:15;;;;;;;1.90;1.60;;;4.70;78.60;;;;;;5076334;28;20735;-41
2022/03/24 05:12:42;;;;;;;2.93;1.60;;;4.70;78.20;;;;;;5076844;28;20500;-41
2022/03/24 05:15:12;;;;;;;1.20;1.10;;;4.80;77.60;;;;;;5076538;28;20475;-42
2022/03/24 05:17:40;;;;;;;1.40;1.00;;;5.00;77.90;;;;;;5075954;28;20487;-41
2022/03/24 05:20:08;;;;;;;1.43;1.20;;;5.10;77.00;;;;;;5076362;28;20508;-41
2022/03/24 05:22:36;;;;;;;1.40;1.30;;;5.00;75.90;;;;;;5076233;28;20435;-44
2022/03/24 05:25:03;;;;;;;1.67;1.37;;;5.10;75.80;;;;;;5076000;28;20495;-42
2022/03/24 05:27:30;;;;;;;1.30;1.20;;;5.20;76.00;;;;;;5076384;28;20483;-50
2022/03/24 05:29:57;;;;;;;1.00;0.80;;;5.30;75.80;;;;;;5075352;28;20487;-41
2022/03/24 05:32:26;;;;;;;1.70;1.40;;;5.30;76.00;;;;;;5076634;28;20492;-41
2022/03/24 05:34:53;;;;;;;1.10;0.90;;;5.30;75.40;;;;;;5076337;28;21012;-44
2022/03/24 05:37:20;;;;;;;2.80;2.50;;;5.20;75.30;;;;;;5075352;28;20508;-41
2022/03/24 05:39:47;;;;;;;2.73;1.87;;;4.90;75.80;;;;;;5075340;28;20476;-42
2022/03/24 05:42:13;;;;;;;1.90;1.80;;;4.70;77.20;;;;;;5076262;28;20502;-41
2022/03/24 05:44:41;;;;;;;1.40;1.30;;;4.60;78.20;;;;;;5075893;28;20475;-41
2022/03/24 05:47:08;;;;;;;1.90;1.80;;;4.30;78.90;;;;;;5076196;28;20444;-45
2022/03/24 05:49:37;;;;;;;1.50;1.40;;;4.10;79.90;;;;;;5076050;28;20444;-41
2022/03/24 05:52:05;;;;;;;1.93;1.83;;;3.90;80.80;;;;;;5075195;28;20464;-41
2022/03/24 05:54:32;;;;;;;1.60;1.20;;;4.10;81.50;;;;;;5075811;28;20949;-42
2022/03/24 05:56:58;;;;;;;2.47;1.47;;;4.20;81.70;;;;;;5075847;28;20519;-42
2022/03/24 05:59:25;;;;;;;3.30;2.10;;;4.30;81.40;;;;;;5075696;28;20445;-41
2022/03/24 06:01:53;;;;;;;1.67;1.40;;;4.40;80.90;;;;;;5075916;28;20822;-42
2022/03/24 06:04:21;;;;;;;1.70;1.53;;;4.50;80.60;;;;;;5075907;28;20448;-42
2022/03/24 06:06:53;;;;;;;1.40;1.30;;;4.60;80.80;;;;;;5075690;28;20463;-41
2022/03/24 06:09:21;;;;;;;3.03;1.50;;;4.50;80.60;;;;;;5075657;28;20544;-41
2022/03/24 06:11:48;;;;;;;1.93;1.83;;;4.70;80.00;;;;;;5074762;28;20902;-41
2022/03/24 06:14:15;;;;;;;1.73;1.40;;;4.80;80.00;;;;;;5075453;28;20448;-41
2022/03/24 06:16:42;;;;;;;1.90;1.80;;;4.70;79.70;;;;;;5075885;28;20892;-41
2022/03/24 06:19:10;;;;;;;1.70;1.53;;;4.50;79.10;;;;;;5073549;28;20442;-49
2022/03/24 06:21:38;;;;;;;1.20;1.10;;;4.60;80.10;;;;;;5074372;28;20471;-42
2022/03/24 06:24:08;;;;;;;1.67;1.47;;;4.80;80.40;;;;;;5072497;28;20437;-41
2022/03/24 06:26:36;;;;;;;1.63;1.50;;;4.90;80.20;;;;;;5073947;28;20504;-42
2022/03/24 06:29:03;;;;;;;2.93;1.50;;;4.90;80.30;;;;;;5074300;28;20485;-42
2022/03/24 06:31:30;;;;;;;2.60;1.90;;;4.90;79.80;;;;;;5074152;28;20484;-41
2022/03/24 06:33:57;;;;;;;2.03;1.90;;;5.10;79.50;;;;;;5074597;28;20539;-42
2022/03/24 06:36:25;;;;;;;1.50;1.30;;;5.20;78.60;;;;;;5074829;28;20471;-41
2022/03/24 06:38:51;;;;;;;1.80;1.30;;;5.10;78.40;;;;;;5075141;28;20498;-41
2022/03/24 06:41:20;;;;;;;3.10;1.60;;;5.00;79.50;;;;;;5075193;28;20964;-41
2022/03/24 06:43:48;;;;;;;1.20;1.10;;;5.20;79.90;;;;;;5075274;28;20479;-41
2022/03/24 06:46:15;;;;;;;1.33;1.20;;;5.30;79.30;;;;;;5075082;28;20440;-41
2022/03/24 06:48:42;;;;;;;1.70;1.60;;;5.00;79.80;;;;;;5075667;28;20444;-41
2022/03/24 06:51:09;;;;;;;1.23;1.00;;;4.80;79.90;;;;;;5074471;28;20419;-43
2022/03/24 06:53:36;;;;;;;2.30;1.20;;;4.70;80.30;;;;;;5075350;28;20451;-41
2022/03/24 06:56:04;;;;;;;3.23;1.17;;;4.60;81.00;;;;;;5074959;28;20440;-43
2022/03/24 06:58:32;;;;;;;3.37;2.20;;;4.70;81.40;;;;;;5074611;28;20555;-43
2022/03/24 07:00:59;;;;;;;3.00;1.93;;;4.90;81.00;;;;;;5074495;28;20472;-42
2022/03/24 07:03:26;;;;;;;2.13;1.83;;;4.90;81.30;;;;;;5074914;28;20484;-41
2022/03/24 07:05:53;;;;;;;1.47;1.37;;;4.80;82.20;;;;;;5075849;28;20481;-41
2022/03/24 07:08:20;;;;;;;2.53;1.50;;;4.80;82.20;;;;;;5073887;28;20479;-50
2022/03/24 07:10:47;;;;;;;1.40;1.30;;;4.70;82.10;;;;;;5073642;28;20468;-43
2022/03/24 07:13:14;;;;;;;1.20;1.10;;;4.90;82.20;;;;;;5094755;23;20571;-46
2022/03/24 07:15:43;;;;;;;2.10;1.30;;;4.90;81.80;;;;;;5070825;28;20506;-48
2022/03/24 07:18:11;;;;;;;1.50;1.40;;;4.90;81.60;;;;;;5070802;28;20533;-45
2022/03/24 07:20:38;;;;;;;2.07;1.93;;;4.90;82.00;;;;;;5070619;28;20447;-45
2022/03/24 07:23:08;;;;;;;2.63;1.70;;;5.00;81.80;;;;;;5071186;28;20555;-45
2022/03/24 07:25:37;;;;;;;3.43;1.60;;;4.90;81.80;;;;;;5073377;28;20454;-46
2022/03/24 07:28:05;;;;;;;2.40;1.47;;;4.90;82.10;;;;;;5074485;28;20450;-45
2022/03/24 07:30:32;;;;;;;1.73;1.60;;;4.90;82.20;;;;;;5073842;28;20440;-45
2022/03/24 07:33:02;;;;;;;1.50;1.30;;;4.80;81.90;;;;;;5074640;28;20559;-45
2022/03/24 07:35:30;;;;;;;3.20;1.33;;;4.60;82.20;;;;;;5074357;28;20440;-45
2022/03/24 07:37:58;;;;;;;3.47;1.30;;;4.40;83.10;;;;;;5074167;28;20483;-45
2022/03/24 07:40:26;;;;;;;2.70;1.50;;;4.00;83.60;;;;;;5074175;28;20991;-45
2022/03/24 07:42:57;;;;;;;1.67;1.57;;;3.90;84.30;;;;;;5073518;28;20546;-44
2022/03/24 07:45:25;;;;;;;1.63;1.53;;;3.90;84.70;;;;;;5072733;28;20944;-46
2022/03/24 07:48:12;;;;;;;2.10;1.90;;;4.00;85.50;;;;;;5072716;28;20440;-47
2022/03/24 07:50:41;;;;;;;11.00;3.30;;;4.30;84.90;;;;;;5072622;28;20451;-45
2022/03/24 07:53:40;;;;;;;1.80;1.70;;;4.30;84.60;;;;;;5074132;28;20500;-45
2022/03/24 07:56:08;;;;;;;2.00;1.80;;;4.40;83.30;;;;;;5073888;28;20440;-46
2022/03/24 07:58:36;;;;;;;1.83;1.70;;;4.50;84.40;;;;;;5073701;28;20566;-45
2022/03/24 08:01:03;;;;;;;2.33;2.10;;;4.80;84.40;;;;;;5073867;28;20444;-46
2022/03/24 08:03:31;;;;;;;1.70;1.60;;;5.00;84.10;;;;;;5074180;28;20501;-45
2022/03/24 08:05:58;;;;;;;1.63;1.53;;;5.20;81.30;;;;;;5074059;28;20532;-45
2022/03/24 08:08:27;;;;;;;8.47;2.70;;;5.40;79.40;;;;;;5073815;28;20480;-45
2022/03/24 08:10:55;;;;;;;1.80;1.60;;;5.50;79.70;;;;;;5073736;28;20440;-45
2022/03/24 08:13:22;;;;;;;3.67;1.80;;;5.70;78.90;;;;;;5073635;28;20504;-45
2022/03/24 08:15:50;;;;;;;2.17;1.70;;;5.90;79.30;;;;;;5073733;28;20517;-48
2022/03/24 08:18:18;;;;;;;2.10;1.50;;;6.00;77.90;;;;;;5073999;28;20571;-45
2022/03/24 08:20:48;;;;;;;2.20;1.80;;;6.20;77.50;;;;;;5073054;28;20480;-45
2022/03/24 08:23:17;;;;;;;2.50;1.87;;;6.40;77.60;;;;;;5074038;28;20460;-45
2022/03/24 08:25:45;;;;;;;2.27;2.13;;;6.60;76.40;;;;;;5073702;28;20444;-45
2022/03/24 08:28:13;;;;;;;2.70;2.50;;;6.70;75.10;;;;;;5073915;28;20444;-47
2022/03/24 08:30:41;;;;;;;3.03;1.90;;;6.80;73.90;;;;;;5073283;28;20444;-45
2022/03/24 08:33:09;;;;;;;1.93;1.73;;;6.90;73.50;;;;;;5073378;28;20502;-46
2022/03/24 08:35:36;;;;;;;2.43;1.27;;;7.10;71.10;;;;;;5073099;28;20503;-46
2022/03/24 08:38:04;;;;;;;2.00;1.63;;;7.10;70.90;;;;;;5073090;28;20570;-49
2022/03/24 08:40:31;;;;;;;3.20;1.87;;;7.30;71.00;;;;;;5072850;28;20904;-50
2022/03/24 08:42:58;;;;;;;4.10;1.73;;;7.40;71.20;;;;;;5073375;28;20500;-46
2022/03/24 08:45:25;;;;;;;2.90;2.03;;;7.60;70.80;;;;;;5073316;28;20480;-45
2022/03/24 08:47:53;;;;;;;2.00;1.77;;;7.70;70.40;;;;;;5072884;28;21072;-46
2022/03/24 08:50:23;;;;;;;1.90;1.70;;;7.80;71.30;;;;;;5072679;28;20444;-46
2022/03/24 08:52:50;;;;;;;2.53;1.87;;;7.90;69.80;;;;;;5073270;28;20468;-45
2022/03/24 08:55:19;;;;;;;2.33;1.87;;;8.00;69.80;;;;;;5073166;28;20533;-46
2022/03/24 08:57:47;;;;;;;1.90;1.70;;;8.10;69.50;;;;;;5072996;28;20522;-46
2022/03/24 09:00:17;;;;;;;2.40;1.60;;;8.10;70.20;;;;;;5072555;28;20484;-46
2022/03/24 09:02:45;;;;;;;2.97;1.90;;;8.20;69.10;;;;;;5073315;28;20483;-46
2022/03/24 09:05:13;;;;;;;1.80;1.70;;;8.30;68.60;;;;;;5072521;28;20445;-47
2022/03/24 09:07:41;;;;;;;1.40;1.27;;;8.40;68.40;;;;;;5073148;28;20441;-46
2022/03/24 09:10:10;;;;;;;1.80;1.60;;;8.60;66.20;;;;;;5071553;28;20527;-46
2022/03/24 09:12:40;;;;;;;2.03;1.23;;;8.70;66.50;;;;;;5072563;28;20479;-48
2022/03/24 09:15:09;;;;;;;1.90;1.50;;;8.90;67.90;;;;;;5072670;28;20484;-46
2022/03/24 09:17:39;;;;;;;1.93;1.60;;;9.00;65.30;;;;;;5072732;28;20476;-46
2022/03/24 09:20:09;;;;;;;1.40;1.30;;;9.20;65.90;;;;;;5072161;28;20491;-46
2022/03/24 09:22:37;;;;;;;1.70;1.33;;;9.30;64.20;;;;;;5072675;28;20455;-46
2022/03/24 09:25:05;;;;;;;1.90;1.50;;;9.50;61.90;;;;;;5072306;28;20821;-48
2022/03/24 09:27:32;;;;;;;3.60;2.20;;;9.60;63.00;;;;;;5072555;28;20444;-46
2022/03/24 09:30:00;;;;;;;2.07;1.83;;;9.80;62.10;;;;;;5071477;28;20522;-46
2022/03/24 09:32:27;;;;;;;2.20;1.83;;;10.00;60.10;;;;;;5072075;28;21033;-45
2022/03/24 09:34:55;;;;;;;1.40;1.30;;;10.10;59.80;;;;;;5072088;28;20527;-46
2022/03/24 09:37:22;;;;;;;1.83;1.50;;;10.30;61.30;;;;;;5071094;28;20452;-45
2022/03/24 09:39:50;;;;;;;1.50;1.33;;;10.50;61.80;;;;;;5071235;28;20948;-46
2022/03/24 09:42:18;;;;;;;7.40;1.60;;;10.60;59.20;;;;;;5071768;28;20547;-48
2022/03/24 09:44:46;;;;;;;2.30;1.20;;;10.70;58.70;;;;;;5071809;28;20613;-45
2022/03/24 09:47:14;;;;;;;3.00;2.03;;;10.90;58.70;;;;;;5070046;28;20445;-45
2022/03/24 09:49:42;;;;;;;1.80;1.30;;;11.10;59.10;;;;;;5071779;28;20532;-45
2022/03/24 09:52:10;;;;;;;1.40;1.30;;;11.30;58.80;;;;;;5071971;28;20548;-44
2022/03/24 09:54:38;;;;;;;1.43;1.30;;;11.50;58.60;;;;;;5071685;28;20444;-44
2022/03/24 09:57:06;;;;;;;1.53;1.10;;;11.70;57.70;;;;;;5071752;28;20468;-45
2022/03/24 09:59:33;;;;;;;1.47;1.37;;;11.70;54.90;;;;;;5071278;28;20559;-46
2022/03/24 10:02:02;;;;;;;1.67;1.20;;;11.70;55.40;;;;;;5071779;28;20475;-49
2022/03/24 10:04:45;;;;;;;1.53;1.43;;;11.80;55.10;;;;;;5071616;28;20474;-46
2022/03/24 10:07:12;;;;;;;2.07;1.33;;;12.10;55.60;;;;;;5070049;28;20445;-46
2022/03/24 10:09:42;;;;;;;2.70;1.33;;;12.20;56.50;;;;;;5069757;28;20540;-47
2022/03/24 10:12:17;;;;;;;2.60;1.70;;;12.20;55.30;;;;;;5069467;28;20476;-46
2022/03/24 10:14:44;;;;;;;1.60;1.40;;;12.30;56.50;;;;;;5069969;28;20435;-46
2022/03/24 10:17:12;;;;;;;3.30;1.30;;;12.50;56.20;;;;;;5070358;28;20478;-48
2022/03/24 10:19:55;;;;;;;2.00;1.30;;;12.70;54.60;;;;;;5069549;28;20563;-46
2022/03/24 10:22:22;;;;;;;1.47;1.37;;;12.80;52.80;;;;;;5071322;28;20502;-49
2022/03/24 10:24:48;;;;;;;3.33;1.37;;;12.90;55.70;;;;;;5071408;28;20886;-47
2022/03/24 10:27:21;;;;;;;1.50;1.40;;;13.00;53.50;;;;;;5071468;28;20531;-46
2022/03/24 10:29:48;;;;;;;2.50;1.50;;;13.30;54.00;;;;;;5070446;28;20967;-47
2022/03/24 10:32:15;;;;;;;2.07;1.10;;;13.60;53.20;;;;;;5071025;28;20492;-46
2022/03/24 10:34:48;;;;;;;1.77;1.30;;;13.60;54.90;;;;;;5070749;28;20483;-50
2022/03/24 10:37:17;;;;;;;1.43;1.27;;;14.00;54.10;;;;;;5071346;28;20444;-47
2022/03/24 10:39:56;;;;;;;3.33;1.53;;;14.00;51.30;;;;;;5070958;28;20480;-46
2022/03/24 10:42:26;;;;;;;1.87;1.40;;;14.20;51.70;;;;;;5071359;28;20438;-46
2022/03/24 10:45:15;;;;;;;1.53;1.17;;;14.20;52.10;;;;;;5071262;28;20440;-48
2022/03/24 10:47:46;;;;;;;2.27;1.40;;;14.20;52.10;;;;;;5071348;28;20440;-48
2022/03/24 10:50:32;;;;;;;1.47;1.10;;;14.30;53.20;;;;;;5070750;28;20524;-47
2022/03/24 10:53:02;;;;;;;2.33;1.50;;;14.30;52.70;;;;;;5071120;28;20989;-46
2022/03/24 10:55:46;;;;;;;5.10;2.17;;;14.30;53.30;;;;;;5070862;28;20479;-46
2022/03/24 10:58:19;;;;;;;4.03;1.60;;;14.40;53.00;;;;;;5071323;28;20533;-46
2022/03/24 11:00:48;;;;;;;1.73;1.63;;;14.60;51.30;;;;;;5075306;28;20444;-46
2022/03/24 11:03:16;;;;;;;1.90;1.80;;;14.50;49.80;;;;;;5082199;28;20550;-47
2022/03/24 11:05:45;;;;;;;2.17;1.60;;;14.60;53.00;;;;;;5085261;28;20440;-46
2022/03/24 11:08:16;;;;;;;2.10;1.90;;;14.80;51.90;;;;;;5074358;28;20519;-46
2022/03/24 11:10:47;;;;;;;2.27;1.90;;;14.80;54.70;;;;;;5071420;28;20458;-47
2022/03/24 11:13:23;;;;;;;2.60;2.23;;;14.70;51.70;;;;;;5074900;28;20617;-47
2022/03/24 11:15:52;;;;;;;2.30;2.10;;;15.00;54.90;;;;;;5074945;28;20444;-47
2022/03/24 11:18:22;;;;;;;3.33;2.40;;;15.10;55.00;;;;;;5074948;28;20511;-46
2022/03/24 11:20:53;;;;;;;3.57;2.00;;;15.30;55.00;;;;;;5074997;28;20452;-46
2022/03/24 11:23:35;;;;;;;2.20;1.70;;;15.40;52.90;;;;;;5074533;28;20475;-47
2022/03/24 11:26:04;;;;;;;1.70;1.60;;;15.30;53.10;;;;;;5074730;28;20816;-48
2022/03/24 11:28:35;;;;;;;1.67;1.57;;;15.30;54.10;;;;;;5073508;28;20485;-49
2022/03/24 11:31:05;;;;;;;1.90;1.53;;;15.40;52.50;;;;;;5080534;28;20805;-47
2022/03/24 11:33:39;;;;;;;1.63;1.53;;;15.60;52.60;;;;;;5084745;28;20547;-47
2022/03/24 11:36:08;;;;;;;1.13;1.03;;;15.70;51.10;;;;;;5082392;28;20425;-48
2022/03/24 11:38:35;;;;;;;1.53;1.10;;;15.90;48.50;;;;;;5082814;28;20464;-46
2022/03/24 11:41:05;;;;;;;1.53;1.10;;;15.90;47.20;;;;;;5084264;28;20460;-47
2022/03/24 11:43:34;;;;;;;1.70;1.23;;;16.00;49.80;;;;;;5084937;28;20496;-47
2022/03/24 11:46:04;;;;;;;1.63;1.10;;;16.20;45.20;;;;;;5081126;28;20515;-49
2022/03/24 11:48:36;;;;;;;2.17;1.30;;;16.40;46.60;;;;;;5083063;28;20466;-46
2022/03/24 11:51:18;;;;;;;1.53;1.07;;;16.50;46.50;;;;;;5073722;28;20472;-47
2022/03/24 11:53:46;;;;;;;1.27;0.83;;;16.60;47.50;;;;;;5073985;28;20475;-46
2022/03/24 11:56:15;;;;;;;1.83;1.30;;;16.60;44.20;;;;;;5073959;28;20515;-47
2022/03/24 11:59:06;;;;;;;2.00;1.10;;;16.80;45.50;;;;;;5073405;28;20643;-46
2022/03/24 12:01:35;;;;;;;4.10;2.10;;;17.00;45.20;;;;;;5073938;28;20450;-47
2022/03/24 12:04:05;;;;;;;1.80;1.20;;;17.10;47.00;;;;;;5074114;28;20464;-48
2022/03/24 12:06:54;;;;;;;1.80;1.00;;;17.20;49.00;;;;;;5074000;28;20524;-46
2022/03/24 12:09:25;;;;;;;1.90;0.97;;;17.30;42.10;;;;;;5066548;28;21013;-48
2022/03/24 12:11:53;;;;;;;2.57;1.00;;;17.30;42.80;;;;;;5071389;28;20754;-47
2022/03/24 12:14:36;;;;;;;1.30;1.20;;;17.30;45.40;;;;;;5073680;28;20436;-49
2022/03/24 12:17:07;;;;;;;5.00;1.50;;;17.30;44.30;;;;;;5073510;28;20949;-47
2022/03/24 12:19:44;;;;;;;1.50;1.20;;;17.30;45.50;;;;;;5073300;28;20562;-47
2022/03/24 12:22:43;;;;;;;3.30;1.57;;;17.50;46.40;;;;;;5073479;28;20980;-47
2022/03/24 12:25:37;;;;;;;5.40;1.80;;;17.70;41.00;;;;;;5073587;28;20456;-48
2022/03/24 12:28:13;;;;;;;2.97;2.03;;;17.70;45.20;;;;;;5078831;28;20463;-47
2022/03/24 12:30:53;;;;;;;2.50;2.30;;;17.80;45.10;;;;;;5093124;28;20785;-47
2022/03/24 12:33:39;;;;;;;3.53;1.73;;;17.70;43.90;;;;;;5093498;28;21008;-46
2022/03/24 12:36:06;;;;;;;2.50;2.20;;;17.80;45.30;;;;;;5093307;28;21295;-46
2022/03/24 12:38:49;;;;;;;7.10;1.93;;;17.60;44.00;;;;;;5093635;28;20475;-47
2022/03/24 12:41:24;;;;;;;5.33;1.80;;;17.70;45.90;;;;;;5093200;28;20526;-46
2022/03/24 12:44:04;;;;;;;1.97;1.77;;;17.70;48.50;;;;;;5093345;28;20491;-48
2022/03/24 12:46:34;;;;;;;2.40;2.07;;;17.70;49.80;;;;;;5093268;28;20451;-50
2022/03/24 12:49:23;;;;;;;2.40;1.80;;;17.80;49.70;;;;;;5093271;28;20471;-44
2022/03/24 12:51:52;;;;;;;2.33;2.13;;;17.90;45.40;;;;;;5093230;28;20965;-47
2022/03/24 12:54:22;;;;;;;2.60;2.10;;;18.00;45.40;;;;;;5093232;28;20505;-46
2022/03/24 12:56:49;;;;;;;1.63;1.37;;;18.00;46.20;;;;;;5092893;28;20486;-45
2022/03/24 12:59:20;;;;;;;4.43;1.43;;;18.10;43.60;;;;;;5093050;28;20558;-48
2022/03/24 13:01:52;;;;;;;2.30;1.63;;;18.10;47.60;;;;;;5093129;28;20475;-51
2022/03/24 13:04:19;;;;;;;2.07;1.40;;;18.20;48.60;;;;;;5093178;28;20517;-47